Time;durP1;ratioP1;P1;durP2;ratioP2;P2;SDS_P1;SDS_P2;PMS_P1;PMS_P2;Temp;Humidity;BMP_temperature;BMP_pressure;BME280_temperature;BME280_humidity;BME280_pressure;Samples;Min_cycle;Max_cycle;Signal;HPM_P1;HPM_P2
2021/01/15 00:03:38;;;;;;;7.47;4.28;;;;;;;0.53;67.56;97817.00;9913506;29;20142;-75
2021/01/15 00:08:58;;;;;;;8.27;4.60;;;;;;;0.50;67.34;97820.78;9889217;29;20089;-75
2021/01/15 00:14:18;;;;;;;6.13;4.38;;;;;;;0.50;67.01;97820.78;9913693;30;20127;-75
2021/01/15 00:19:38;;;;;;;8.27;5.13;;;;;;;0.47;67.62;97821.81;9900547;30;20515;-75
2021/01/15 00:24:58;;;;;;;7.80;5.07;;;;;;;0.44;67.63;97820.13;9887398;30;20074;-75
2021/01/15 00:30:18;;;;;;;7.57;5.57;;;;;;;0.41;67.40;97815.69;9888166;30;20059;-75
2021/01/15 00:35:37;;;;;;;7.90;5.40;;;;;;;0.27;67.59;97804.66;9912939;30;20059;-75
2021/01/15 00:41:08;;;;;;;9.55;5.30;;;;;;;-0.07;68.33;97790.72;9899155;30;20056;-75
2021/01/15 00:46:31;;;;;;;8.15;5.47;;;;;;;-0.21;68.02;97802.88;9900069;30;20063;-75
2021/01/15 00:51:53;;;;;;;8.35;5.65;;;;;;;-0.43;67.90;97800.47;9913398;30;20503;-75
2021/01/15 00:57:15;;;;;;;8.27;6.05;;;;;;;-0.47;68.27;97805.50;9887077;30;20515;-75
2021/01/15 01:02:36;;;;;;;7.90;5.88;;;;;;;-0.42;68.32;97807.44;9898458;30;20063;-75
2021/01/15 01:07:56;;;;;;;8.45;6.10;;;;;;;-0.37;68.33;97818.34;9899148;30;20074;-75
2021/01/15 01:13:16;;;;;;;9.50;6.68;;;;;;;-0.27;69.14;97823.44;9885954;29;20169;-75
2021/01/15 01:18:35;;;;;;;8.73;6.55;;;;;;;-0.24;68.33;97822.41;9897856;30;20156;-75
2021/01/15 01:23:55;;;;;;;8.20;5.75;;;;;;;-0.22;68.46;97825.38;9897651;30;20073;-75
2021/01/15 01:29:15;;;;;;;10.30;6.70;;;;;;;-0.17;68.70;97825.28;9912234;30;20074;-75
2021/01/15 01:34:35;;;;;;;9.95;6.55;;;;;;;-0.16;68.36;97832.25;9910916;30;20481;-75
2021/01/15 01:39:55;;;;;;;8.35;6.05;;;;;;;-0.18;68.82;97825.81;9897224;30;20071;-75
2021/01/15 01:45:15;;;;;;;9.93;6.57;;;;;;;-0.15;68.79;97824.78;9897343;30;20601;-75
2021/01/15 01:50:35;;;;;;;10.10;7.55;;;;;;;-0.17;68.87;97825.28;9881897;30;20169;-75
2021/01/15 01:55:55;;;;;;;10.63;7.30;;;;;;;-0.21;68.69;97832.31;9884936;30;20069;-75
2021/01/15 02:01:15;;;;;;;10.20;7.65;;;;;;;-0.26;68.91;97816.69;9884572;30;20067;-75
2021/01/15 02:06:40;;;;;;;11.35;7.13;;;;;;;-0.25;69.36;97810.69;9883745;30;20071;-75
2021/01/15 02:12:15;;;;;;;9.45;7.05;;;;;;;-0.21;69.60;97821.34;9883676;30;20067;-75
2021/01/15 02:17:40;;;;;;;10.68;7.30;;;;;;;-0.23;69.03;97827.38;9885710;30;20106;-75
2021/01/15 02:23:10;;;;;;;10.02;6.75;;;;;;;-0.18;68.95;97825.81;9884079;30;20067;-75
2021/01/15 02:28:42;;;;;;;11.60;7.68;;;;;;;-0.18;69.55;97832.06;9895435;30;20483;-75
2021/01/15 02:34:22;;;;;;;9.38;6.63;;;;;;;-0.11;68.87;97842.41;9908355;30;20065;-75
2021/01/15 02:40:10;;;;;;;11.27;7.20;;;;;;;-0.06;69.55;97833.38;9910243;30;20073;-75
2021/01/15 02:45:30;;;;;;;9.00;6.97;;;;;;;-0.04;69.41;97839.06;9895521;30;20071;-75
2021/01/15 02:50:49;;;;;;;10.80;7.13;;;;;;;-0.03;69.15;97837.81;9909876;30;20102;-75
2021/01/15 02:56:13;;;;;;;10.50;7.78;;;;;;;-0.04;69.32;97846.56;9883613;30;20154;-75
2021/01/15 03:01:57;;;;;;;10.70;7.47;;;;;;;-0.08;69.27;97843.38;9896444;30;20063;-75
2021/01/15 03:07:17;;;;;;;10.85;7.70;;;;;;;-0.08;69.50;97846.13;9874384;30;20071;-75
2021/01/15 03:12:38;;;;;;;13.52;8.23;;;;;;;-0.09;69.58;97850.16;9895142;30;20069;-75
2021/01/15 03:17:58;;;;;;;11.23;7.45;;;;;;;-0.05;69.70;97845.81;9884024;30;20059;-75
2021/01/15 03:23:18;;;;;;;10.27;7.45;;;;;;;-0.07;69.73;97847.63;9870769;30;20142;-75
2021/01/15 03:28:39;;;;;;;12.18;8.43;;;;;;;-0.07;69.80;97840.13;9907435;30;20128;-75
2021/01/15 03:33:59;;;;;;;12.75;9.38;;;;;;;-0.05;69.55;97845.09;9882467;30;20066;-75
2021/01/15 03:39:19;;;;;;;16.20;9.10;;;;;;;-0.01;70.03;97846.25;9886003;30;20067;-74
2021/01/15 03:44:39;;;;;;;12.02;8.10;;;;;;;0.06;70.11;97850.41;9876406;30;20059;-75
2021/01/15 03:49:59;;;;;;;13.60;9.52;;;;;;;0.01;69.96;97848.50;9901234;30;20059;-75
2021/01/15 03:55:19;;;;;;;12.45;8.63;;;;;;;0.02;70.17;97841.75;9900968;30;20063;-75
2021/01/15 04:00:38;;;;;;;11.98;9.00;;;;;;;0.05;70.02;97837.94;9901665;30;20074;-75
2021/01/15 04:05:58;;;;;;;13.98;9.05;;;;;;;0.08;70.10;97842.38;9914173;30;20124;-75
2021/01/15 04:11:21;;;;;;;13.00;9.07;;;;;;;0.11;69.97;97838.63;9887813;30;20199;-75
2021/01/15 04:16:41;;;;;;;11.63;8.43;;;;;;;0.09;70.13;97838.38;9888902;30;20067;-75
2021/01/15 04:22:01;;;;;;;14.65;10.32;;;;;;;0.11;70.07;97841.38;9875153;30;20126;-75
2021/01/15 04:27:21;;;;;;;12.98;9.38;;;;;;;0.11;70.07;97835.88;9912886;30;20147;-75
2021/01/15 04:32:47;;;;;;;13.60;9.95;;;;;;;0.13;70.35;97838.84;9899566;30;20511;-76
2021/01/15 04:38:07;;;;;;;12.25;8.70;;;;;;;0.13;70.62;97840.84;9935144;29;20055;-75
2021/01/15 04:43:30;;;;;;;13.05;8.90;;;;;;;0.15;70.40;97852.03;9936480;29;20062;-75
2021/01/15 04:48:50;;;;;;;11.55;9.07;;;;;;;0.12;70.52;97853.09;9910927;29;20067;-75
2021/01/15 04:54:14;;;;;;;10.77;9.00;;;;;;;0.10;70.26;97864.59;9936072;29;20069;-76
2021/01/15 04:59:48;;;;;;;13.73;9.63;;;;;;;0.13;70.91;97860.78;9948623;29;20527;-76
2021/01/15 05:05:09;;;;;;;13.10;9.05;;;;;;;0.16;70.70;97864.50;9936068;29;20069;-75
2021/01/15 05:10:29;;;;;;;12.13;9.18;;;;;;;0.12;70.78;97862.06;9923161;29;20097;-75
2021/01/15 05:15:51;;;;;;;11.90;8.32;;;;;;;0.09;71.07;97868.56;9923170;29;20464;-76
2021/01/15 05:21:11;;;;;;;11.50;8.38;;;;;;;0.09;71.02;97865.81;9910121;29;20069;-75
2021/01/15 05:26:33;;;;;;;13.75;8.85;;;;;;;0.06;70.72;97877.13;9949053;29;20062;-75
2021/01/15 05:31:57;;;;;;;13.43;8.55;;;;;;;0.05;70.68;97870.88;9935139;29;20086;-75
2021/01/15 05:37:20;;;;;;;12.70;8.40;;;;;;;0.03;71.08;97878.16;9923155;29;20063;-75
2021/01/15 05:42:49;;;;;;;10.50;8.20;;;;;;;0.00;70.86;97877.22;9934519;29;20127;-75
2021/01/15 05:48:09;;;;;;;12.05;8.40;;;;;;;0.06;70.72;97877.84;9922574;29;20067;-75
2021/01/15 05:53:40;;;;;;;13.05;8.88;;;;;;;0.08;71.25;97886.31;9934038;29;20195;-75
2021/01/15 05:59:08;;;;;;;11.43;8.05;;;;;;;0.12;71.24;97889.50;9922478;29;20067;-75
2021/01/15 06:04:31;;;;;;;12.60;8.45;;;;;;;0.16;71.34;97897.44;9933636;29;20063;-75
2021/01/15 06:09:51;;;;;;;12.93;9.50;;;;;;;0.16;71.20;97887.19;9946393;29;20149;-75
2021/01/15 06:15:12;;;;;;;14.45;9.40;;;;;;;0.19;70.76;97902.66;9908515;29;20410;-75
2021/01/15 06:20:31;;;;;;;12.65;8.93;;;;;;;0.24;71.25;97899.06;9933397;29;20545;-75
2021/01/15 06:25:58;;;;;;;12.55;9.43;;;;;;;0.26;71.07;97901.28;9907987;29;20150;-76
2021/01/15 06:31:18;;;;;;;13.40;8.82;;;;;;;0.22;71.43;97901.59;9913360;29;20070;-75
2021/01/15 06:36:52;;;;;;;11.40;8.95;;;;;;;0.30;71.11;97914.72;9883339;30;20082;-75
2021/01/15 06:42:11;;;;;;;13.07;8.50;;;;;;;0.38;70.87;97912.84;9896196;30;20071;-75
2021/01/15 06:47:31;;;;;;;11.60;8.15;;;;;;;0.50;71.04;97919.66;9870962;30;20059;-75
2021/01/15 06:52:51;;;;;;;11.18;8.10;;;;;;;0.53;71.11;97918.63;9882931;30;20074;-74
2021/01/15 06:58:22;;;;;;;12.55;8.63;;;;;;;0.58;70.80;97928.78;9884287;30;20067;-74
2021/01/15 07:04:13;;;;;;;12.98;8.73;;;;;;;0.49;71.20;97929.19;9871923;30;20067;-74
2021/01/15 07:09:33;;;;;;;11.93;7.90;;;;;;;0.52;70.62;97942.59;9892259;30;20063;-74
2021/01/15 07:14:58;;;;;;;9.63;6.90;;;;;;;0.62;71.17;97953.22;9864063;30;20075;-74
2021/01/15 07:20:19;;;;;;;11.20;7.95;;;;;;;0.68;71.41;97957.38;9897072;29;20070;-74
2021/01/15 07:25:39;;;;;;;10.20;7.70;;;;;;;0.73;71.30;97958.53;9914118;29;20094;-74
2021/01/15 07:31:03;;;;;;;11.45;7.95;;;;;;;0.74;71.09;97960.00;9926511;29;20065;-75
2021/01/15 07:36:52;;;;;;;14.33;7.97;;;;;;;0.84;71.33;97966.59;9939281;29;20069;-74
2021/01/15 07:42:12;;;;;;;10.18;7.13;;;;;;;0.92;70.90;97974.97;9922805;29;20327;-74
2021/01/15 07:47:37;;;;;;;11.68;7.75;;;;;;;1.01;71.21;97977.34;9925304;29;20062;-74
2021/01/15 07:53:12;;;;;;;10.85;7.63;;;;;;;1.04;70.91;97982.50;9914729;29;20418;-74
2021/01/15 07:58:38;;;;;;;10.65;7.20;;;;;;;1.11;70.91;97976.41;9950865;29;20384;-75
2021/01/15 08:03:57;;;;;;;11.20;7.72;;;;;;;1.15;70.84;97987.81;9951490;29;20488;-74
2021/01/15 08:09:17;;;;;;;11.50;6.85;;;;;;;1.19;71.06;97979.28;9937954;29;20078;-74
2021/01/15 08:14:38;;;;;;;9.20;7.07;;;;;;;1.23;71.06;97987.97;9950792;29;20073;-73
2021/01/15 08:19:58;;;;;;;10.75;7.35;;;;;;;1.30;71.12;97990.09;9912517;29;20422;-74
2021/01/15 08:25:28;;;;;;;8.93;6.68;;;;;;;1.45;70.43;97995.09;9899216;29;20054;-74
2021/01/15 08:31:06;;;;;;;8.95;6.68;;;;;;;1.54;70.77;97988.41;9924744;29;20062;-74
2021/01/15 08:36:26;;;;;;;8.95;6.28;;;;;;;1.56;70.44;97997.66;9901023;29;20141;-74
2021/01/15 08:41:59;;;;;;;9.25;6.22;;;;;;;1.53;70.75;98003.44;9899186;29;20062;-74
2021/01/15 08:47:21;;;;;;;10.15;6.45;;;;;;;1.57;70.72;98010.13;9913215;29;20070;-75
2021/01/15 08:52:42;;;;;;;8.70;6.22;;;;;;;1.74;70.59;98018.09;9921284;29;20058;-75
2021/01/15 08:58:04;;;;;;;9.38;6.35;;;;;;;1.88;70.34;98013.31;9912264;29;20395;-75
2021/01/15 09:03:24;;;;;;;8.27;6.07;;;;;;;2.14;70.49;98020.84;9935814;29;20059;-75
2021/01/15 09:08:46;;;;;;;9.00;5.90;;;;;;;2.35;70.58;98021.66;9936511;29;20439;-75
2021/01/15 09:14:12;;;;;;;8.60;6.03;;;;;;;2.51;69.85;98015.06;9935451;29;20214;-75
2021/01/15 09:19:32;;;;;;;8.75;6.28;;;;;;;2.73;69.56;98024.84;9948786;29;20063;-74
2021/01/15 09:24:52;;;;;;;9.27;6.07;;;;;;;2.86;69.28;98026.81;9948694;29;20133;-75
2021/01/15 09:30:14;;;;;;;8.27;6.10;;;;;;;2.79;69.33;98038.50;9948260;29;20146;-74
2021/01/15 09:35:34;;;;;;;9.18;6.05;;;;;;;2.79;69.33;98042.00;9947894;29;20073;-74
2021/01/15 09:40:54;;;;;;;8.98;6.10;;;;;;;2.79;69.12;98046.78;9922748;29;20066;-75
2021/01/15 09:46:22;;;;;;;8.77;6.45;;;;;;;3.00;69.12;98052.34;9948052;29;20583;-74
2021/01/15 09:51:42;;;;;;;8.50;6.00;;;;;;;3.20;69.33;98045.38;9921560;29;20066;-75
2021/01/15 09:57:01;;;;;;;8.60;6.50;;;;;;;3.56;67.83;98037.94;9909652;29;20062;-75
2021/01/15 10:02:22;;;;;;;8.98;6.45;;;;;;;3.79;67.40;98048.44;9947362;29;20090;-76
2021/01/15 10:07:43;;;;;;;7.95;6.00;;;;;;;3.99;68.08;98047.63;9921917;29;20165;-75
2021/01/15 10:13:03;;;;;;;8.55;6.55;;;;;;;4.24;67.85;98053.47;9947534;29;20119;-76
2021/01/15 10:18:22;;;;;;;7.82;5.80;;;;;;;4.60;67.54;98045.16;9947082;29;20063;-76
2021/01/15 10:23:42;;;;;;;6.90;5.50;;;;;;;4.53;67.36;98054.16;9948031;29;20170;-75
2021/01/15 10:29:07;;;;;;;7.30;4.80;;;;;;;4.47;67.25;98046.06;9922841;29;20097;-75
2021/01/15 10:34:28;;;;;;;6.90;4.90;;;;;;;4.38;66.46;98040.28;9896719;30;20134;-75
2021/01/15 10:39:48;;;;;;;6.57;5.25;;;;;;;4.20;66.79;98045.53;9895800;30;20510;-75
2021/01/15 10:45:08;;;;;;;8.68;5.63;;;;;;;4.17;66.82;98045.91;9918627;30;20094;-76
2021/01/15 10:50:30;;;;;;;8.68;6.07;;;;;;;4.27;67.10;98042.09;9916337;30;20063;-77
2021/01/15 10:55:50;;;;;;;8.68;5.70;;;;;;;4.23;66.17;98047.22;9902457;30;20067;-78
2021/01/15 11:01:10;;;;;;;8.40;5.38;;;;;;;4.28;66.00;98042.81;9916157;30;20059;-78
2021/01/15 11:06:30;;;;;;;8.98;5.57;;;;;;;4.19;65.79;98049.59;9914959;29;20086;-76
2021/01/15 11:11:50;;;;;;;7.88;5.57;;;;;;;4.19;65.93;98044.06;9914311;30;20086;-78
2021/01/15 11:17:09;;;;;;;7.78;5.57;;;;;;;4.28;65.53;98038.03;9917402;30;20063;-76
2021/01/15 11:22:29;;;;;;;7.95;6.18;;;;;;;4.38;65.91;98043.78;9892432;30;20086;-78
2021/01/15 11:27:49;;;;;;;7.20;5.35;;;;;;;4.53;65.35;98040.34;9902130;30;20067;-78
2021/01/15 11:33:09;;;;;;;9.40;6.15;;;;;;;4.68;65.51;98036.91;9916132;30;20063;-79
2021/01/15 11:38:29;;;;;;;9.65;6.13;;;;;;;4.64;64.22;98040.03;9924264;29;20119;-80
2021/01/15 11:43:49;;;;;;;7.70;5.43;;;;;;;4.45;64.46;98031.31;9920037;30;20511;-78
2021/01/15 11:49:09;;;;;;;7.97;5.72;;;;;;;4.30;64.74;98029.19;9915224;30;20071;-77
2021/01/15 12:00:49;;;;;;;7.13;4.78;;;;;;;4.16;64.64;98020.31;2857495;24;20082;-76
2021/01/15 12:06:10;;;;;;;7.03;5.15;;;;;;;4.26;64.54;98015.00;9929115;29;20070;-77
2021/01/15 12:11:30;;;;;;;8.23;4.93;;;;;;;4.19;64.33;98010.91;9903309;29;20090;-77
2021/01/15 12:16:50;;;;;;;7.75;4.50;;;;;;;4.26;64.13;98020.53;9949020;29;20058;-77
2021/01/15 12:22:11;;;;;;;6.72;4.38;;;;;;;4.14;63.75;98014.56;9948702;29;20066;-77
2021/01/15 12:27:31;;;;;;;6.13;3.90;;;;;;;3.88;63.63;98009.28;9963199;29;20063;-76
2021/01/15 12:32:52;;;;;;;7.28;4.82;;;;;;;3.67;63.89;98007.31;9962039;29;20145;-76
2021/01/15 12:38:16;;;;;;;5.82;4.40;;;;;;;3.53;64.35;98007.91;9966024;29;20131;-76
2021/01/15 12:43:36;;;;;;;9.18;5.95;;;;;;;3.50;64.37;98012.50;9962958;29;20153;-76
2021/01/15 12:48:56;;;;;;;8.13;5.40;;;;;;;3.53;64.27;98008.66;9949617;29;20062;-76
2021/01/15 12:54:16;;;;;;;7.80;5.82;;;;;;;3.31;64.57;98009.97;9963630;29;20421;-75
2021/01/15 12:59:36;;;;;;;6.45;4.43;;;;;;;3.29;64.41;98011.78;9938249;29;20127;-76
2021/01/15 13:04:56;;;;;;;6.88;5.05;;;;;;;3.28;64.46;98013.03;9948366;29;20158;-76
2021/01/15 13:42:08;;;;;;;5.18;3.67;;;;;;;2.29;65.77;98043.06;9862772;30;20071;-78
2021/01/15 14:13:16;;;;;;;5.30;3.08;;;;;;;1.45;67.07;98063.88;9067092;24;20154;-79
2021/01/15 14:18:36;;;;;;;7.57;4.22;;;;;;;1.51;67.04;98067.25;9938305;29;20078;-79
2021/01/15 14:23:56;;;;;;;5.90;4.07;;;;;;;1.52;67.70;98068.75;9941633;29;20059;-79
2021/01/15 14:29:16;;;;;;;6.45;4.43;;;;;;;1.50;67.19;98073.28;9980844;29;20068;-80
2021/01/15 14:34:36;;;;;;;7.07;4.40;;;;;;;1.42;67.06;98075.91;9967022;29;20064;-81
2021/01/15 14:40:17;;;;;;;7.10;4.70;;;;;;;1.40;68.19;98079.19;9994626;29;20130;-81
2021/01/15 14:45:39;;;;;;;8.35;4.93;;;;;;;1.24;67.65;98093.19;9977824;29;20046;-80
2021/01/15 14:57:19;;;;;;;7.85;4.50;;;;;;;1.00;67.92;98094.06;11475273;24;20093;-81
2021/01/15 15:08:34;;;;;;;8.73;5.20;;;;;;;0.85;67.70;98114.47;9964822;24;20074;-78
2021/01/15 15:13:57;;;;;;;7.50;4.40;;;;;;;0.84;68.23;98124.00;9885706;30;20063;-78
2021/01/15 15:19:58;;;;;;;6.30;3.95;;;;;;;0.70;68.29;98130.69;9940157;29;20132;-83
2021/01/15 15:26:30;;;;;;;;;;;;;;;;;;;;;
2021/01/15 15:38:53;;;;;;;7.32;4.28;;;;;;;0.50;68.76;98136.69;11091632;24;20069;-79
2021/01/15 15:44:13;;;;;;;5.93;3.75;;;;;;;0.35;68.42;98136.34;9941111;29;20066;-79
2021/01/15 15:49:33;;;;;;;5.55;3.47;;;;;;;0.26;68.19;98137.41;9941981;29;20055;-78
2021/01/15 15:54:53;;;;;;;7.43;4.35;;;;;;;0.20;68.38;98139.50;9947838;29;20118;-79
2021/01/15 16:00:14;;;;;;;6.75;4.20;;;;;;;-0.02;68.59;98134.94;9975427;29;20066;-78
2021/01/15 16:05:35;;;;;;;6.15;3.83;;;;;;;-0.31;69.36;98148.19;9950175;29;20090;-77
2021/01/15 16:10:54;;;;;;;6.93;4.25;;;;;;;-0.52;69.04;98154.59;9951830;29;20109;-79
2021/01/15 16:16:15;;;;;;;7.28;4.30;;;;;;;-0.70;69.07;98153.22;9964863;29;20065;-78
2021/01/15 16:21:47;;;;;;;6.05;3.90;;;;;;;-0.80;68.69;98168.47;9947646;29;20074;-82
2021/01/15 16:27:25;;;;;;;6.20;3.37;;;;;;;-0.83;69.30;98155.78;9945878;29;20063;-82
2021/01/15 16:39:58;;;;;;;5.47;3.10;;;;;;;-0.76;68.61;98185.41;10028584;24;20074;-77
2021/01/15 16:45:28;;;;;;;3.95;2.70;;;;;;;-0.66;68.99;98183.84;9903666;29;20125;-81
2021/01/15 17:36:44;;;;;;;4.82;3.10;;;;;;;-0.37;68.39;98213.34;11467048;24;20075;-78
2021/01/15 19:02:11;;;;;;;6.28;3.60;;;;;;;-0.67;68.20;98264.63;9879943;30;20091;-78
2021/01/15 19:07:31;;;;;;;5.78;3.88;;;;;;;-0.57;67.74;98268.56;9894495;30;20102;-81
2021/01/15 20:53:39;;;;;;;6.90;4.10;;;;;;;-0.61;67.74;98300.97;10594001;24;20070;-79
2021/01/15 20:59:00;;;;;;;6.88;4.25;;;;;;;-0.73;67.68;98302.28;9924623;29;20059;-80
2021/01/15 21:04:20;;;;;;;5.95;3.58;;;;;;;-0.83;67.72;98301.81;9958150;29;20526;-79
2021/01/15 21:09:40;;;;;;;6.30;3.78;;;;;;;-0.83;67.67;98306.56;9974758;29;20095;-81
2021/01/15 21:15:03;;;;;;;6.18;4.03;;;;;;;-0.85;68.17;98311.81;9956926;29;20486;-80
2021/01/15 21:20:25;;;;;;;6.32;4.05;;;;;;;-0.85;67.54;98320.03;9953387;29;20066;-80
2021/01/15 21:25:52;;;;;;;5.97;4.03;;;;;;;-0.92;67.60;98311.06;9948162;29;20062;-82
